sensor_id;sensor_type;location;lat;lon;timestamp;temperature;humidity
24452;DHT22;13350;50.984;5.822;2023-02-26T00:01:31;-0.60;99.90
24452;DHT22;13350;50.984;5.822;2023-02-26T00:04:00;-0.50;99.90
24452;DHT22;13350;50.984;5.822;2023-02-26T00:06:33;-0.60;99.90
24452;DHT22;13350;50.984;5.822;2023-02-26T00:09:01;-0.60;99.90
24452;DHT22;13350;50.984;5.822;2023-02-26T00:11:28;-0.60;99.90
24452;DHT22;13350;50.984;5.822;2023-02-26T00:13:56;-0.60;99.90
24452;DHT22;13350;50.984;5.822;2023-02-26T00:16:27;-0.50;99.90
24452;DHT22;13350;50.984;5.822;2023-02-26T00:18:57;-0.60;99.90
24452;DHT22;13350;50.984;5.822;2023-02-26T00:21:26;-0.60;99.90
24452;DHT22;13350;50.984;5.822;2023-02-26T00:23:55;-0.60;99.90
24452;DHT22;13350;50.984;5.822;2023-02-26T00:26:24;-0.60;99.90
24452;DHT22;13350;50.984;5.822;2023-02-26T00:28:52;-0.60;99.90
24452;DHT22;13350;50.984;5.822;2023-02-26T00:31:21;-0.40;99.90
24452;DHT22;13350;50.984;5.822;2023-02-26T00:33:50;-0.50;99.90
24452;DHT22;13350;50.984;5.822;2023-02-26T00:36:22;-0.50;99.90
24452;DHT22;13350;50.984;5.822;2023-02-26T00:39:00;-0.40;99.90
24452;DHT22;13350;50.984;5.822;2023-02-26T00:41:32;-0.40;99.90
24452;DHT22;13350;50.984;5.822;2023-02-26T00:44:01;-0.50;99.90
24452;DHT22;13350;50.984;5.822;2023-02-26T00:46:37;-0.50;99.90
24452;DHT22;13350;50.984;5.822;2023-02-26T00:49:15;-0.60;99.90
24452;DHT22;13350;50.984;5.822;2023-02-26T00:51:48;-0.70;99.90
24452;DHT22;13350;50.984;5.822;2023-02-26T00:54:18;-0.80;99.90
24452;DHT22;13350;50.984;5.822;2023-02-26T00:59:32;-1.00;99.90
24452;DHT22;13350;50.984;5.822;2023-02-26T01:01:59;-1.00;99.90
24452;DHT22;13350;50.984;5.822;2023-02-26T01:04:27;-1.00;99.90
24452;DHT22;13350;50.984;5.822;2023-02-26T01:06:56;-1.00;99.90
24452;DHT22;13350;50.984;5.822;2023-02-26T01:09:26;-1.20;99.90
24452;DHT22;13350;50.984;5.822;2023-02-26T01:11:56;-1.30;99.90
24452;DHT22;13350;50.984;5.822;2023-02-26T01:14:27;-1.40;99.90
24452;DHT22;13350;50.984;5.822;2023-02-26T01:16:58;-1.50;99.90
24452;DHT22;13350;50.984;5.822;2023-02-26T01:19:32;-1.40;99.90
24452;DHT22;13350;50.984;5.822;2023-02-26T01:22:10;-1.50;99.90
24452;DHT22;13350;50.984;5.822;2023-02-26T01:24:39;-1.60;99.90
24452;DHT22;13350;50.984;5.822;2023-02-26T01:27:06;-1.60;99.90
24452;DHT22;13350;50.984;5.822;2023-02-26T01:29:34;-1.50;99.90
24452;DHT22;13350;50.984;5.822;2023-02-26T01:32:05;-1.40;99.90
24452;DHT22;13350;50.984;5.822;2023-02-26T01:34:38;-1.30;99.90
24452;DHT22;13350;50.984;5.822;2023-02-26T01:37:18;-1.10;99.90
24452;DHT22;13350;50.984;5.822;2023-02-26T01:39:54;-1.00;99.90
24452;DHT22;13350;50.984;5.822;2023-02-26T01:42:26;-1.00;99.90
24452;DHT22;13350;50.984;5.822;2023-02-26T01:45:00;-1.00;99.90
24452;DHT22;13350;50.984;5.822;2023-02-26T01:47:32;-0.90;99.90
24452;DHT22;13350;50.984;5.822;2023-02-26T01:50:08;-0.90;99.90
24452;DHT22;13350;50.984;5.822;2023-02-26T01:53:14;-0.90;99.90
24452;DHT22;13350;50.984;5.822;2023-02-26T01:55:43;-0.80;99.90
24452;DHT22;13350;50.984;5.822;2023-02-26T01:58:11;-0.80;99.90
24452;DHT22;13350;50.984;5.822;2023-02-26T02:00:38;-0.70;99.90
24452;DHT22;13350;50.984;5.822;2023-02-26T02:03:06;-0.70;99.90
24452;DHT22;13350;50.984;5.822;2023-02-26T02:05:38;-0.60;99.90
24452;DHT22;13350;50.984;5.822;2023-02-26T02:08:07;-0.50;99.90
24452;DHT22;13350;50.984;5.822;2023-02-26T02:10:40;-0.50;99.90
24452;DHT22;13350;50.984;5.822;2023-02-26T02:13:15;-0.40;99.90
24452;DHT22;13350;50.984;5.822;2023-02-26T02:15:48;-0.30;99.90
24452;DHT22;13350;50.984;5.822;2023-02-26T02:18:21;-0.20;99.90
24452;DHT22;13350;50.984;5.822;2023-02-26T02:21:25;-0.20;99.90
24452;DHT22;13350;50.984;5.822;2023-02-26T02:23:58;-0.20;99.90
24452;DHT22;13350;50.984;5.822;2023-02-26T02:26:58;-0.20;99.90
24452;DHT22;13350;50.984;5.822;2023-02-26T02:29:44;-0.10;99.90
24452;DHT22;13350;50.984;5.822;2023-02-26T02:32:20;0.00;99.90
24452;DHT22;13350;50.984;5.822;2023-02-26T02:34:51;0.00;99.90
24452;DHT22;13350;50.984;5.822;2023-02-26T02:37:23;0.00;99.90
24452;DHT22;13350;50.984;5.822;2023-02-26T02:39:54;0.10;99.90
24452;DHT22;13350;50.984;5.822;2023-02-26T02:42:27;0.00;99.90
24452;DHT22;13350;50.984;5.822;2023-02-26T02:44:58;0.10;99.90
24452;DHT22;13350;50.984;5.822;2023-02-26T02:47:31;0.10;99.90
24452;DHT22;13350;50.984;5.822;2023-02-26T02:50:04;0.10;99.90
24452;DHT22;13350;50.984;5.822;2023-02-26T02:52:37;0.00;99.90
24452;DHT22;13350;50.984;5.822;2023-02-26T02:55:12;-0.10;99.90
24452;DHT22;13350;50.984;5.822;2023-02-26T02:57:44;-0.20;99.90
24452;DHT22;13350;50.984;5.822;2023-02-26T03:00:13;-0.30;99.90
24452;DHT22;13350;50.984;5.822;2023-02-26T03:02:50;-0.40;99.90
24452;DHT22;13350;50.984;5.822;2023-02-26T03:05:18;-0.50;99.90
24452;DHT22;13350;50.984;5.822;2023-02-26T03:07:49;-0.50;99.90
24452;DHT22;13350;50.984;5.822;2023-02-26T03:10:18;-0.50;99.90
24452;DHT22;13350;50.984;5.822;2023-02-26T03:12:45;-0.50;99.90
24452;DHT22;13350;50.984;5.822;2023-02-26T03:15:13;-0.40;99.90
24452;DHT22;13350;50.984;5.822;2023-02-26T03:17:49;-0.50;99.90
24452;DHT22;13350;50.984;5.822;2023-02-26T03:20:23;-0.50;99.90
24452;DHT22;13350;50.984;5.822;2023-02-26T03:23:01;-0.50;99.90
24452;DHT22;13350;50.984;5.822;2023-02-26T03:25:39;-0.50;99.90
24452;DHT22;13350;50.984;5.822;2023-02-26T03:28:15;-0.50;99.90
24452;DHT22;13350;50.984;5.822;2023-02-26T03:30:47;-0.50;99.90
24452;DHT22;13350;50.984;5.822;2023-02-26T03:33:23;-0.50;99.90
24452;DHT22;13350;50.984;5.822;2023-02-26T03:35:54;-0.60;99.90
24452;DHT22;13350;50.984;5.822;2023-02-26T03:38:29;-0.60;99.90
24452;DHT22;13350;50.984;5.822;2023-02-26T03:41:01;-0.60;99.90
24452;DHT22;13350;50.984;5.822;2023-02-26T03:43:31;-0.60;99.90
24452;DHT22;13350;50.984;5.822;2023-02-26T03:46:03;-0.60;99.90
24452;DHT22;13350;50.984;5.822;2023-02-26T03:48:34;-0.40;99.90
24452;DHT22;13350;50.984;5.822;2023-02-26T03:51:06;-0.40;99.90
24452;DHT22;13350;50.984;5.822;2023-02-26T03:53:39;-0.50;99.90
24452;DHT22;13350;50.984;5.822;2023-02-26T03:56:14;-0.50;99.90
24452;DHT22;13350;50.984;5.822;2023-02-26T03:58:42;-0.60;99.90
24452;DHT22;13350;50.984;5.822;2023-02-26T04:01:13;-0.70;99.90
24452;DHT22;13350;50.984;5.822;2023-02-26T04:03:48;-0.70;99.90
24452;DHT22;13350;50.984;5.822;2023-02-26T04:06:16;-0.80;99.90
24452;DHT22;13350;50.984;5.822;2023-02-26T04:08:45;-0.80;99.90
24452;DHT22;13350;50.984;5.822;2023-02-26T04:11:16;-0.80;99.90
24452;DHT22;13350;50.984;5.822;2023-02-26T04:13:43;-0.90;99.90
24452;DHT22;13350;50.984;5.822;2023-02-26T04:16:10;-0.90;99.90
24452;DHT22;13350;50.984;5.822;2023-02-26T04:18:38;-1.00;99.90
24452;DHT22;13350;50.984;5.822;2023-02-26T04:21:10;-1.00;99.90
24452;DHT22;13350;50.984;5.822;2023-02-26T04:23:37;-1.00;99.90
24452;DHT22;13350;50.984;5.822;2023-02-26T04:26:05;-0.90;99.90
24452;DHT22;13350;50.984;5.822;2023-02-26T04:28:32;-0.90;99.90
24452;DHT22;13350;50.984;5.822;2023-02-26T04:31:03;-0.90;99.90
24452;DHT22;13350;50.984;5.822;2023-02-26T04:33:31;-0.90;99.90
24452;DHT22;13350;50.984;5.822;2023-02-26T04:35:58;-1.00;99.90
24452;DHT22;13350;50.984;5.822;2023-02-26T04:38:27;-0.90;99.90
24452;DHT22;13350;50.984;5.822;2023-02-26T04:40:55;-1.00;99.90
24452;DHT22;13350;50.984;5.822;2023-02-26T04:43:22;-1.00;99.90
24452;DHT22;13350;50.984;5.822;2023-02-26T04:45:49;-1.10;99.90
24452;DHT22;13350;50.984;5.822;2023-02-26T04:48:17;-1.10;99.90
24452;DHT22;13350;50.984;5.822;2023-02-26T04:50:44;-1.10;99.90
24452;DHT22;13350;50.984;5.822;2023-02-26T04:53:12;-1.10;99.90
24452;DHT22;13350;50.984;5.822;2023-02-26T04:55:41;-1.20;99.90
24452;DHT22;13350;50.984;5.822;2023-02-26T04:58:08;-1.20;99.90
24452;DHT22;13350;50.984;5.822;2023-02-26T05:00:36;-1.20;99.90
24452;DHT22;13350;50.984;5.822;2023-02-26T05:03:03;-1.20;99.90
24452;DHT22;13350;50.984;5.822;2023-02-26T05:05:30;-1.20;99.90
24452;DHT22;13350;50.984;5.822;2023-02-26T05:07:58;-1.20;99.90
24452;DHT22;13350;50.984;5.822;2023-02-26T05:10:25;-1.10;99.90
24452;DHT22;13350;50.984;5.822;2023-02-26T05:12:54;-1.10;99.90
24452;DHT22;13350;50.984;5.822;2023-02-26T05:15:21;-1.10;99.90
24452;DHT22;13350;50.984;5.822;2023-02-26T05:17:48;-1.20;99.90
24452;DHT22;13350;50.984;5.822;2023-02-26T05:20:15;-1.20;99.90
24452;DHT22;13350;50.984;5.822;2023-02-26T05:22:43;-1.20;99.90
24452;DHT22;13350;50.984;5.822;2023-02-26T05:25:10;-1.30;99.90
24452;DHT22;13350;50.984;5.822;2023-02-26T05:27:41;-1.40;99.90
24452;DHT22;13350;50.984;5.822;2023-02-26T05:30:14;-1.40;99.90
24452;DHT22;13350;50.984;5.822;2023-02-26T05:32:42;-1.30;99.90
24452;DHT22;13350;50.984;5.822;2023-02-26T05:35:10;-1.30;99.90
24452;DHT22;13350;50.984;5.822;2023-02-26T05:37:37;-1.20;99.90
24452;DHT22;13350;50.984;5.822;2023-02-26T05:40:07;-1.20;99.90
24452;DHT22;13350;50.984;5.822;2023-02-26T05:42:35;-1.30;99.90
24452;DHT22;13350;50.984;5.822;2023-02-26T05:45:03;-1.20;99.90
24452;DHT22;13350;50.984;5.822;2023-02-26T05:47:32;-1.20;99.90
24452;DHT22;13350;50.984;5.822;2023-02-26T05:49:59;-1.30;99.90
24452;DHT22;13350;50.984;5.822;2023-02-26T05:52:27;-1.20;99.90
24452;DHT22;13350;50.984;5.822;2023-02-26T05:54:54;-1.20;99.90
24452;DHT22;13350;50.984;5.822;2023-02-26T05:57:22;-1.30;99.90
24452;DHT22;13350;50.984;5.822;2023-02-26T05:59:50;-1.20;99.90
24452;DHT22;13350;50.984;5.822;2023-02-26T06:02:17;-1.20;99.90
24452;DHT22;13350;50.984;5.822;2023-02-26T06:04:46;-1.20;99.90
24452;DHT22;13350;50.984;5.822;2023-02-26T06:07:13;-1.20;99.90
24452;DHT22;13350;50.984;5.822;2023-02-26T06:09:40;-1.30;99.90
24452;DHT22;13350;50.984;5.822;2023-02-26T06:12:07;-1.30;99.90
24452;DHT22;13350;50.984;5.822;2023-02-26T06:14:35;-1.30;99.90
24452;DHT22;13350;50.984;5.822;2023-02-26T06:17:02;-1.30;99.90
24452;DHT22;13350;50.984;5.822;2023-02-26T06:19:29;-1.30;99.90
24452;DHT22;13350;50.984;5.822;2023-02-26T06:21:58;-1.30;99.90
24452;DHT22;13350;50.984;5.822;2023-02-26T06:24:25;-1.30;99.90
24452;DHT22;13350;50.984;5.822;2023-02-26T06:26:53;-1.30;99.90
24452;DHT22;13350;50.984;5.822;2023-02-26T06:29:20;-1.20;99.90
24452;DHT22;13350;50.984;5.822;2023-02-26T06:31:48;-1.30;99.90
24452;DHT22;13350;50.984;5.822;2023-02-26T06:34:15;-1.30;99.90
24452;DHT22;13350;50.984;5.822;2023-02-26T06:36:43;-1.30;99.90
24452;DHT22;13350;50.984;5.822;2023-02-26T06:39:11;-1.30;99.90
24452;DHT22;13350;50.984;5.822;2023-02-26T06:41:39;-1.40;99.90
24452;DHT22;13350;50.984;5.822;2023-02-26T06:44:06;-1.50;99.90
24452;DHT22;13350;50.984;5.822;2023-02-26T06:46:33;-1.40;99.90
24452;DHT22;13350;50.984;5.822;2023-02-26T06:49:01;-1.40;99.90
24452;DHT22;13350;50.984;5.822;2023-02-26T06:51:28;-1.30;99.90
24452;DHT22;13350;50.984;5.822;2023-02-26T06:53:56;-1.40;99.90
24452;DHT22;13350;50.984;5.822;2023-02-26T06:56:24;-1.40;99.90
24452;DHT22;13350;50.984;5.822;2023-02-26T06:58:52;-1.40;99.90
24452;DHT22;13350;50.984;5.822;2023-02-26T07:01:19;-1.40;99.90
24452;DHT22;13350;50.984;5.822;2023-02-26T07:03:46;-1.30;99.90
24452;DHT22;13350;50.984;5.822;2023-02-26T07:06:14;-1.30;99.90
24452;DHT22;13350;50.984;5.822;2023-02-26T07:08:42;-1.20;99.90
24452;DHT22;13350;50.984;5.822;2023-02-26T07:11:09;-1.20;99.90
24452;DHT22;13350;50.984;5.822;2023-02-26T07:13:37;-1.10;99.90
24452;DHT22;13350;50.984;5.822;2023-02-26T07:16:05;-1.10;99.90
24452;DHT22;13350;50.984;5.822;2023-02-26T07:18:33;-1.00;99.90
24452;DHT22;13350;50.984;5.822;2023-02-26T07:21:00;-0.90;99.90
24452;DHT22;13350;50.984;5.822;2023-02-26T07:23:27;-1.00;99.90
24452;DHT22;13350;50.984;5.822;2023-02-26T07:25:54;-0.90;99.90
24452;DHT22;13350;50.984;5.822;2023-02-26T07:28:23;-0.90;99.90
24452;DHT22;13350;50.984;5.822;2023-02-26T07:30:53;-0.90;99.90
24452;DHT22;13350;50.984;5.822;2023-02-26T07:33:20;-0.90;99.90
24452;DHT22;13350;50.984;5.822;2023-02-26T07:35:48;-0.90;99.90
24452;DHT22;13350;50.984;5.822;2023-02-26T07:38:15;-0.80;99.90
24452;DHT22;13350;50.984;5.822;2023-02-26T07:40:42;-0.70;99.90
24452;DHT22;13350;50.984;5.822;2023-02-26T07:43:09;-0.60;99.90
24452;DHT22;13350;50.984;5.822;2023-02-26T07:45:36;-0.50;99.90
24452;DHT22;13350;50.984;5.822;2023-02-26T07:48:05;-0.50;99.90
24452;DHT22;13350;50.984;5.822;2023-02-26T07:50:32;-0.40;99.90
24452;DHT22;13350;50.984;5.822;2023-02-26T07:52:59;-0.30;99.90
24452;DHT22;13350;50.984;5.822;2023-02-26T07:55:27;-0.30;99.90
24452;DHT22;13350;50.984;5.822;2023-02-26T07:57:54;-0.30;99.90
24452;DHT22;13350;50.984;5.822;2023-02-26T08:00:22;-0.20;99.90
24452;DHT22;13350;50.984;5.822;2023-02-26T08:02:49;-0.20;99.90
24452;DHT22;13350;50.984;5.822;2023-02-26T08:05:18;-0.20;99.90
24452;DHT22;13350;50.984;5.822;2023-02-26T08:07:45;-0.10;99.90
24452;DHT22;13350;50.984;5.822;2023-02-26T08:10:12;0.00;99.90
24452;DHT22;13350;50.984;5.822;2023-02-26T08:12:39;0.00;99.90
24452;DHT22;13350;50.984;5.822;2023-02-26T08:15:07;0.00;99.90
24452;DHT22;13350;50.984;5.822;2023-02-26T08:17:36;0.10;99.90
24452;DHT22;13350;50.984;5.822;2023-02-26T08:20:05;0.20;99.90
24452;DHT22;13350;50.984;5.822;2023-02-26T08:22:34;0.20;99.90
24452;DHT22;13350;50.984;5.822;2023-02-26T08:25:01;0.40;99.90
24452;DHT22;13350;50.984;5.822;2023-02-26T08:27:28;0.50;99.90
24452;DHT22;13350;50.984;5.822;2023-02-26T08:29:55;0.50;99.90
24452;DHT22;13350;50.984;5.822;2023-02-26T08:32:23;0.60;99.90
24452;DHT22;13350;50.984;5.822;2023-02-26T08:34:51;0.80;99.90
24452;DHT22;13350;50.984;5.822;2023-02-26T08:37:20;0.90;99.90
24452;DHT22;13350;50.984;5.822;2023-02-26T08:39:50;0.90;99.90
24452;DHT22;13350;50.984;5.822;2023-02-26T08:42:18;1.00;99.90
24452;DHT22;13350;50.984;5.822;2023-02-26T08:44:45;0.90;99.90
24452;DHT22;13350;50.984;5.822;2023-02-26T08:47:13;0.90;99.90
24452;DHT22;13350;50.984;5.822;2023-02-26T08:49:40;0.80;99.90
24452;DHT22;13350;50.984;5.822;2023-02-26T08:52:07;0.90;99.90
24452;DHT22;13350;50.984;5.822;2023-02-26T08:54:34;1.00;99.90
24452;DHT22;13350;50.984;5.822;2023-02-26T08:57:03;1.00;99.90
24452;DHT22;13350;50.984;5.822;2023-02-26T08:59:30;1.20;99.90
24452;DHT22;13350;50.984;5.822;2023-02-26T09:01:58;1.40;99.90
24452;DHT22;13350;50.984;5.822;2023-02-26T09:04:25;1.40;99.90
24452;DHT22;13350;50.984;5.822;2023-02-26T09:06:53;1.40;99.90
24452;DHT22;13350;50.984;5.822;2023-02-26T09:09:20;1.40;99.90
24452;DHT22;13350;50.984;5.822;2023-02-26T09:11:47;1.50;99.90
24452;DHT22;13350;50.984;5.822;2023-02-26T09:14:16;1.50;99.90
24452;DHT22;13350;50.984;5.822;2023-02-26T09:16:43;1.50;99.90
24452;DHT22;13350;50.984;5.822;2023-02-26T09:19:10;1.70;99.90
24452;DHT22;13350;50.984;5.822;2023-02-26T09:21:38;2.20;99.90
24452;DHT22;13350;50.984;5.822;2023-02-26T09:24:06;2.40;99.90
24452;DHT22;13350;50.984;5.822;2023-02-26T09:26:33;2.80;99.90
24452;DHT22;13350;50.984;5.822;2023-02-26T09:29:00;2.80;99.90
24452;DHT22;13350;50.984;5.822;2023-02-26T09:31:29;2.90;99.90
24452;DHT22;13350;50.984;5.822;2023-02-26T09:33:56;3.30;99.90
24452;DHT22;13350;50.984;5.822;2023-02-26T09:36:23;3.30;99.90
24452;DHT22;13350;50.984;5.822;2023-02-26T09:38:50;3.70;99.90
24452;DHT22;13350;50.984;5.822;2023-02-26T09:41:22;4.00;99.90
24452;DHT22;13350;50.984;5.822;2023-02-26T09:44:02;3.70;99.90
24452;DHT22;13350;50.984;5.822;2023-02-26T09:46:38;3.20;99.90
24452;DHT22;13350;50.984;5.822;2023-02-26T09:49:17;2.90;99.90
24452;DHT22;13350;50.984;5.822;2023-02-26T09:51:48;2.40;99.90
24452;DHT22;13350;50.984;5.822;2023-02-26T09:54:18;2.50;99.90
24452;DHT22;13350;50.984;5.822;2023-02-26T09:56:47;2.40;99.90
24452;DHT22;13350;50.984;5.822;2023-02-26T09:59:16;2.50;99.90
24452;DHT22;13350;50.984;5.822;2023-02-26T10:01:51;3.90;99.90
24452;DHT22;13350;50.984;5.822;2023-02-26T10:04:30;3.60;99.90
24452;DHT22;13350;50.984;5.822;2023-02-26T10:07:10;3.50;99.90
24452;DHT22;13350;50.984;5.822;2023-02-26T10:09:53;2.90;99.90
24452;DHT22;13350;50.984;5.822;2023-02-26T10:12:25;3.20;99.90
24452;DHT22;13350;50.984;5.822;2023-02-26T10:14:57;3.50;99.90
24452;DHT22;13350;50.984;5.822;2023-02-26T10:17:31;3.40;99.90
24452;DHT22;13350;50.984;5.822;2023-02-26T10:19:59;4.10;99.90
24452;DHT22;13350;50.984;5.822;2023-02-26T10:22:32;4.60;99.90
24452;DHT22;13350;50.984;5.822;2023-02-26T10:25:04;4.40;99.90
24452;DHT22;13350;50.984;5.822;2023-02-26T10:27:47;4.40;99.90
24452;DHT22;13350;50.984;5.822;2023-02-26T10:30:24;3.80;99.90
24452;DHT22;13350;50.984;5.822;2023-02-26T10:32:57;4.00;99.90
24452;DHT22;13350;50.984;5.822;2023-02-26T10:35:28;3.90;99.90
24452;DHT22;13350;50.984;5.822;2023-02-26T10:37:57;4.80;99.90
24452;DHT22;13350;50.984;5.822;2023-02-26T10:40:31;5.50;99.90
24452;DHT22;13350;50.984;5.822;2023-02-26T10:43:01;5.50;99.90
24452;DHT22;13350;50.984;5.822;2023-02-26T10:45:39;5.40;99.90
24452;DHT22;13350;50.984;5.822;2023-02-26T10:48:23;5.60;99.90
24452;DHT22;13350;50.984;5.822;2023-02-26T10:50:53;5.80;99.90
24452;DHT22;13350;50.984;5.822;2023-02-26T10:53:22;5.50;99.90
24452;DHT22;13350;50.984;5.822;2023-02-26T10:55:52;5.10;99.90
24452;DHT22;13350;50.984;5.822;2023-02-26T10:58:23;4.80;99.90
24452;DHT22;13350;50.984;5.822;2023-02-26T11:00:53;4.20;99.90
24452;DHT22;13350;50.984;5.822;2023-02-26T11:03:29;5.10;99.90
24452;DHT22;13350;50.984;5.822;2023-02-26T11:05:58;5.50;99.90
24452;DHT22;13350;50.984;5.822;2023-02-26T11:08:27;5.60;99.90
24452;DHT22;13350;50.984;5.822;2023-02-26T11:10:56;5.50;99.90
24452;DHT22;13350;50.984;5.822;2023-02-26T11:13:25;5.50;99.90
24452;DHT22;13350;50.984;5.822;2023-02-26T11:15:54;5.80;99.90
24452;DHT22;13350;50.984;5.822;2023-02-26T11:18:26;5.90;99.90
24452;DHT22;13350;50.984;5.822;2023-02-26T11:20:58;6.20;99.90
24452;DHT22;13350;50.984;5.822;2023-02-26T11:23:29;6.60;99.90
24452;DHT22;13350;50.984;5.822;2023-02-26T11:26:00;7.00;99.90
24452;DHT22;13350;50.984;5.822;2023-02-26T11:28:32;6.80;99.90
24452;DHT22;13350;50.984;5.822;2023-02-26T11:31:04;6.10;99.90
24452;DHT22;13350;50.984;5.822;2023-02-26T11:33:36;6.10;99.90
24452;DHT22;13350;50.984;5.822;2023-02-26T11:36:08;6.30;99.90
24452;DHT22;13350;50.984;5.822;2023-02-26T11:38:37;6.30;99.90
24452;DHT22;13350;50.984;5.822;2023-02-26T11:41:05;6.70;99.90
24452;DHT22;13350;50.984;5.822;2023-02-26T11:43:35;6.70;99.90
24452;DHT22;13350;50.984;5.822;2023-02-26T11:46:04;7.00;99.90
24452;DHT22;13350;50.984;5.822;2023-02-26T11:48:39;6.80;99.90
24452;DHT22;13350;50.984;5.822;2023-02-26T11:51:08;7.00;99.90
24452;DHT22;13350;50.984;5.822;2023-02-26T11:53:42;6.80;99.90
24452;DHT22;13350;50.984;5.822;2023-02-26T11:56:12;6.60;99.90
24452;DHT22;13350;50.984;5.822;2023-02-26T11:58:42;6.20;99.90
24452;DHT22;13350;50.984;5.822;2023-02-26T12:01:12;6.10;99.90
24452;DHT22;13350;50.984;5.822;2023-02-26T12:03:46;6.60;99.90
24452;DHT22;13350;50.984;5.822;2023-02-26T12:06:17;6.00;99.90
24452;DHT22;13350;50.984;5.822;2023-02-26T12:08:45;5.00;99.90
24452;DHT22;13350;50.984;5.822;2023-02-26T12:11:33;5.70;99.90
24452;DHT22;13350;50.984;5.822;2023-02-26T12:14:11;6.10;99.90
24452;DHT22;13350;50.984;5.822;2023-02-26T12:16:50;6.30;99.90
24452;DHT22;13350;50.984;5.822;2023-02-26T12:19:39;5.00;99.90
24452;DHT22;13350;50.984;5.822;2023-02-26T12:22:25;4.60;99.90
24452;DHT22;13350;50.984;5.822;2023-02-26T12:25:20;3.90;99.90
24452;DHT22;13350;50.984;5.822;2023-02-26T12:30:58;4.50;99.90
24452;DHT22;13350;50.984;5.822;2023-02-26T12:33:38;5.30;99.90
24452;DHT22;13350;50.984;5.822;2023-02-26T12:36:20;6.10;99.90
24452;DHT22;13350;50.984;5.822;2023-02-26T12:38:55;7.00;99.90
24452;DHT22;13350;50.984;5.822;2023-02-26T12:41:47;7.30;99.90
24452;DHT22;13350;50.984;5.822;2023-02-26T12:44:42;6.40;99.90
24452;DHT22;13350;50.984;5.822;2023-02-26T12:47:32;6.50;99.90
24452;DHT22;13350;50.984;5.822;2023-02-26T12:50:12;6.00;99.90
24452;DHT22;13350;50.984;5.822;2023-02-26T12:53:02;6.00;99.90
24452;DHT22;13350;50.984;5.822;2023-02-26T12:55:41;5.60;99.90
24452;DHT22;13350;50.984;5.822;2023-02-26T12:58:29;5.30;99.90
24452;DHT22;13350;50.984;5.822;2023-02-26T13:04:02;5.70;99.90
24452;DHT22;13350;50.984;5.822;2023-02-26T13:07:02;6.00;99.90
24452;DHT22;13350;50.984;5.822;2023-02-26T13:09:46;6.60;99.90
24452;DHT22;13350;50.984;5.822;2023-02-26T13:12:27;6.10;99.90
24452;DHT22;13350;50.984;5.822;2023-02-26T13:15:06;5.90;99.90
24452;DHT22;13350;50.984;5.822;2023-02-26T13:17:43;5.60;99.90
24452;DHT22;13350;50.984;5.822;2023-02-26T13:20:15;5.70;99.90
24452;DHT22;13350;50.984;5.822;2023-02-26T13:22:46;6.00;99.90
24452;DHT22;13350;50.984;5.822;2023-02-26T13:25:20;5.60;99.90
24452;DHT22;13350;50.984;5.822;2023-02-26T13:27:50;4.70;99.90
24452;DHT22;13350;50.984;5.822;2023-02-26T13:30:24;4.60;99.90
24452;DHT22;13350;50.984;5.822;2023-02-26T13:32:55;5.20;99.90
24452;DHT22;13350;50.984;5.822;2023-02-26T13:35:27;5.40;99.90
24452;DHT22;13350;50.984;5.822;2023-02-26T13:37:56;5.20;99.90
24452;DHT22;13350;50.984;5.822;2023-02-26T13:40:46;5.20;99.90
24452;DHT22;13350;50.984;5.822;2023-02-26T13:43:35;5.70;99.90
24452;DHT22;13350;50.984;5.822;2023-02-26T13:46:16;5.90;99.90
24452;DHT22;13350;50.984;5.822;2023-02-26T13:48:55;5.60;99.90
24452;DHT22;13350;50.984;5.822;2023-02-26T13:51:29;4.90;99.30
24452;DHT22;13350;50.984;5.822;2023-02-26T13:53:59;4.40;99.90
24452;DHT22;13350;50.984;5.822;2023-02-26T13:56:48;5.60;99.90
24452;DHT22;13350;50.984;5.822;2023-02-26T13:59:30;6.20;97.70
24452;DHT22;13350;50.984;5.822;2023-02-26T14:05:30;6.20;97.30
24452;DHT22;13350;50.984;5.822;2023-02-26T14:10:57;6.10;96.40
24452;DHT22;13350;50.984;5.822;2023-02-26T14:13:34;6.30;95.60
24452;DHT22;13350;50.984;5.822;2023-02-26T14:16:10;6.10;95.90
24452;DHT22;13350;50.984;5.822;2023-02-26T14:18:41;6.20;96.90
24452;DHT22;13350;50.984;5.822;2023-02-26T14:21:36;6.50;98.20
24452;DHT22;13350;50.984;5.822;2023-02-26T14:24:12;6.40;98.00
24452;DHT22;13350;50.984;5.822;2023-02-26T14:26:45;5.90;97.60
24452;DHT22;13350;50.984;5.822;2023-02-26T14:29:20;6.10;98.70
24452;DHT22;13350;50.984;5.822;2023-02-26T14:32:05;6.20;98.40
24452;DHT22;13350;50.984;5.822;2023-02-26T14:34:46;6.50;99.30
24452;DHT22;13350;50.984;5.822;2023-02-26T14:37:16;6.30;97.60
24452;DHT22;13350;50.984;5.822;2023-02-26T14:39:48;5.90;97.80
24452;DHT22;13350;50.984;5.822;2023-02-26T14:42:21;5.80;98.50
24452;DHT22;13350;50.984;5.822;2023-02-26T14:44:55;5.90;97.00
24452;DHT22;13350;50.984;5.822;2023-02-26T14:47:24;5.90;96.80
24452;DHT22;13350;50.984;5.822;2023-02-26T14:49:51;6.00;98.50
24452;DHT22;13350;50.984;5.822;2023-02-26T14:53:06;5.90;96.90
24452;DHT22;13350;50.984;5.822;2023-02-26T14:55:43;6.10;96.40
24452;DHT22;13350;50.984;5.822;2023-02-26T14:58:27;6.20;96.70
24452;DHT22;13350;50.984;5.822;2023-02-26T15:01:06;6.20;97.20
24452;DHT22;13350;50.984;5.822;2023-02-26T15:06:57;6.20;95.40
24452;DHT22;13350;50.984;5.822;2023-02-26T15:09:33;5.90;95.10
24452;DHT22;13350;50.984;5.822;2023-02-26T15:12:12;5.90;95.60
24452;DHT22;13350;50.984;5.822;2023-02-26T15:15:05;5.90;96.60
24452;DHT22;13350;50.984;5.822;2023-02-26T15:18:07;5.80;95.60
24452;DHT22;13350;50.984;5.822;2023-02-26T15:20:44;5.60;95.10
24452;DHT22;13350;50.984;5.822;2023-02-26T15:23:35;5.40;95.60
24452;DHT22;13350;50.984;5.822;2023-02-26T15:26:06;5.10;96.30
24452;DHT22;13350;50.984;5.822;2023-02-26T15:28:37;4.70;97.00
24452;DHT22;13350;50.984;5.822;2023-02-26T15:31:06;4.60;97.60
24452;DHT22;13350;50.984;5.822;2023-02-26T15:33:36;4.60;99.30
24452;DHT22;13350;50.984;5.822;2023-02-26T15:36:07;4.50;99.90
24452;DHT22;13350;50.984;5.822;2023-02-26T15:38:40;4.40;98.90
24452;DHT22;13350;50.984;5.822;2023-02-26T15:41:09;4.30;99.20
24452;DHT22;13350;50.984;5.822;2023-02-26T15:43:37;4.30;99.90
24452;DHT22;13350;50.984;5.822;2023-02-26T15:46:05;4.30;98.90
24452;DHT22;13350;50.984;5.822;2023-02-26T15:48:36;4.30;99.00
24452;DHT22;13350;50.984;5.822;2023-02-26T15:51:08;4.20;98.70
24452;DHT22;13350;50.984;5.822;2023-02-26T15:53:38;4.20;99.90
24452;DHT22;13350;50.984;5.822;2023-02-26T15:56:09;4.20;99.50
24452;DHT22;13350;50.984;5.822;2023-02-26T15:58:41;4.10;99.90
24452;DHT22;13350;50.984;5.822;2023-02-26T16:01:14;4.10;99.90
24452;DHT22;13350;50.984;5.822;2023-02-26T16:03:44;4.10;99.90
24452;DHT22;13350;50.984;5.822;2023-02-26T16:06:16;4.10;99.90
24452;DHT22;13350;50.984;5.822;2023-02-26T16:08:43;4.10;99.90
24452;DHT22;13350;50.984;5.822;2023-02-26T16:11:12;4.00;99.90
24452;DHT22;13350;50.984;5.822;2023-02-26T16:13:41;4.00;99.90
24452;DHT22;13350;50.984;5.822;2023-02-26T16:16:12;4.00;99.90
24452;DHT22;13350;50.984;5.822;2023-02-26T16:18:41;3.90;99.90
24452;DHT22;13350;50.984;5.822;2023-02-26T16:21:20;3.90;99.90
24452;DHT22;13350;50.984;5.822;2023-02-26T16:23:50;3.90;99.90
24452;DHT22;13350;50.984;5.822;2023-02-26T16:26:21;3.80;99.90